createdAt,value
2024-01-11T00:02:45.906Z,52.35
2024-01-11T00:06:49.353Z,59.90
2024-01-11T00:10:52.783Z,53.28
2024-01-11T00:14:56.050Z,42.42
2024-01-11T00:19:00.978Z,53.45
2024-01-11T00:23:04.723Z,52.88
2024-01-11T00:27:08.189Z,61.50
2024-01-11T00:31:11.544Z,52.05
2024-01-11T00:35:16.556Z,69.38
2024-01-11T00:39:20.304Z,56.58
2024-01-11T00:43:24.335Z,61.28
2024-01-11T00:47:27.472Z,49.05
2024-01-11T00:51:32.264Z,53.72
2024-01-11T00:55:35.561Z,44.88
2024-01-11T00:59:38.753Z,45.40
2024-01-11T01:03:42.282Z,56.42
2024-01-11T01:07:47.482Z,51.55
2024-01-11T01:11:50.861Z,54.30
2024-01-11T01:15:54.126Z,49.28
2024-01-11T01:19:57.369Z,54.13
2024-01-11T01:24:02.186Z,52.35
2024-01-11T01:28:06.094Z,49.38
2024-01-11T01:32:09.443Z,59.55
2024-01-11T01:36:13.027Z,60.63
2024-01-11T01:40:17.713Z,58.88
2024-01-11T01:44:21.178Z,58.95
2024-01-11T01:48:24.481Z,55.80
2024-01-11T01:52:28.075Z,53.78
2024-01-11T01:56:33.514Z,53.63
2024-01-11T02:00:36.790Z,66.07
2024-01-11T02:04:40.524Z,52.42
2024-01-11T02:08:45.822Z,58.78
2024-01-11T02:12:50.416Z,61.72
2024-01-11T02:16:53.756Z,53.90
2024-01-11T02:20:57.706Z,66.82
2024-01-11T02:25:02.386Z,63.88
2024-01-11T02:29:05.605Z,60.95
2024-01-11T02:33:09.717Z,48.67
2024-01-11T02:37:15.031Z,52.00
2024-01-11T02:41:20.910Z,43.53
2024-01-11T02:45:24.155Z,36.08
2024-01-11T02:49:27.489Z,51.05
2024-01-11T02:53:35.537Z,64.32
2024-01-11T02:57:40.343Z,37.78
2024-01-11T03:01:43.759Z,53.25
2024-01-11T03:05:47.314Z,39.40
2024-01-11T03:09:50.736Z,41.15
2024-01-11T03:13:55.266Z,42.40
2024-01-11T03:17:58.881Z,46.28
2024-01-11T03:22:07.440Z,60.97
2024-01-11T03:26:16.083Z,48.42
2024-01-11T03:30:20.936Z,66.80
2024-01-11T03:34:24.230Z,57.28
2024-01-11T03:38:27.616Z,56.95
2024-01-11T03:42:30.964Z,61.55
2024-01-11T03:46:35.672Z,57.03
2024-01-11T03:50:38.886Z,50.60
2024-01-11T03:54:42.297Z,72.10
2024-01-11T03:58:46.584Z,63.65
2024-01-11T04:02:51.161Z,41.50
2024-01-11T04:06:54.693Z,59.92
2024-01-11T04:10:58.022Z,68.85
2024-01-11T04:15:01.122Z,53.25
2024-01-11T04:19:06.081Z,66.45
2024-01-11T04:23:09.509Z,59.03
2024-01-11T04:27:12.998Z,77.70
2024-01-11T04:31:18.277Z,55.97
2024-01-11T04:35:22.967Z,53.72
2024-01-11T04:39:26.251Z,47.75
2024-01-11T04:43:29.608Z,47.88
2024-01-11T04:47:34.012Z,52.50
2024-01-11T04:51:38.859Z,51.33
2024-01-11T04:55:42.183Z,52.78
2024-01-11T04:59:46.368Z,43.08
2024-01-11T05:03:51.649Z,42.95
2024-01-11T05:07:56.891Z,44.70
2024-01-11T05:12:02.803Z,61.80
2024-01-11T05:16:06.883Z,52.08
2024-01-11T05:20:12.150Z,58.38
2024-01-11T05:24:17.304Z,55.08
2024-01-11T05:28:20.455Z,47.28
2024-01-11T05:32:23.782Z,55.80
2024-01-11T05:36:26.961Z,47.67
2024-01-11T05:40:32.540Z,61.13
2024-01-11T05:44:35.624Z,65.93
2024-01-11T05:48:40.161Z,46.55
2024-01-11T05:52:43.589Z,50.22
2024-01-11T05:56:48.618Z,56.47
2024-01-11T06:00:51.763Z,50.03
2024-01-11T06:04:55.449Z,49.40
2024-01-11T06:08:58.949Z,48.15
2024-01-11T06:13:04.165Z,57.85
2024-01-11T06:17:07.232Z,61.88
2024-01-11T06:21:10.633Z,45.80
2024-01-11T06:25:14.015Z,52.78
2024-01-11T06:29:19.039Z,50.83
2024-01-11T06:33:22.828Z,48.83
2024-01-11T06:37:26.504Z,43.10
2024-01-11T06:41:29.730Z,44.67
2024-01-11T06:45:36.695Z,54.25
2024-01-11T06:49:41.113Z,59.15
2024-01-11T06:53:45.342Z,53.05
2024-01-11T06:57:50.183Z,53.38
2024-01-11T07:01:55.328Z,61.15
2024-01-11T07:05:58.526Z,62.90
2024-01-11T07:10:02.366Z,51.65
2024-01-11T07:14:05.866Z,60.35
2024-01-11T07:18:10.828Z,62.08
2024-01-11T07:22:13.977Z,73.70
2024-01-11T07:26:17.668Z,65.20
2024-01-11T07:30:21.137Z,61.53
2024-01-11T07:34:26.391Z,66.38
2024-01-11T07:38:29.620Z,70.40
2024-01-11T07:42:33.567Z,60.58
2024-01-11T07:46:42.529Z,72.78
2024-01-11T07:50:54.668Z,75.97
2024-01-11T07:54:59.188Z,58.25
2024-01-11T07:59:02.659Z,77.65
2024-01-11T08:03:06.661Z,59.00
2024-01-11T08:07:11.671Z,67.00
2024-01-11T08:11:14.843Z,73.72
2024-01-11T08:15:18.055Z,72.82
2024-01-11T08:19:21.497Z,67.80
2024-01-11T08:23:29.473Z,65.45
2024-01-11T08:27:34.476Z,82.75
2024-01-11T08:31:40.368Z,77.30
2024-01-11T08:39:56.327Z,71.82
2024-01-11T08:43:59.846Z,74.78
2024-01-11T10:07:41.000Z,34.75
2024-01-11T10:11:44.789Z,48.88
2024-01-11T10:20:06.902Z,50.28
2024-01-11T10:24:11.975Z,44.20
2024-01-11T10:28:17.028Z,48.42
2024-01-11T10:32:20.636Z,52.33
2024-01-11T10:36:25.450Z,45.50
2024-01-11T10:40:31.126Z,40.38
2024-01-11T10:44:37.685Z,42.78
2024-01-11T10:48:42.251Z,50.70
2024-01-11T10:52:57.380Z,48.38
2024-01-11T10:57:05.585Z,49.17
2024-01-11T11:01:10.522Z,43.85
2024-01-11T11:05:16.194Z,51.83
2024-01-11T11:09:22.439Z,50.15
2024-01-11T11:13:28.052Z,52.63
2024-01-11T11:17:32.464Z,53.50
2024-01-11T11:21:44.091Z,52.15
2024-01-11T11:25:50.036Z,54.85
2024-01-11T11:29:55.100Z,48.75
2024-01-11T11:34:05.211Z,49.58
2024-01-11T11:38:08.746Z,47.85
2024-01-11T11:42:12.592Z,55.65
2024-01-11T11:46:17.218Z,52.70
2024-01-11T11:50:25.156Z,49.42
2024-01-11T11:54:29.081Z,56.15
2024-01-11T11:58:33.148Z,48.08
2024-01-11T12:02:38.117Z,54.10
2024-01-11T12:06:41.911Z,52.08
2024-01-11T12:10:45.355Z,48.58
2024-01-11T12:14:49.320Z,41.72
2024-01-11T12:18:54.907Z,57.28
2024-01-11T12:22:59.259Z,50.58
2024-01-11T12:27:03.206Z,54.50
2024-01-11T12:31:07.264Z,47.35
2024-01-11T12:35:12.833Z,48.78
2024-01-11T12:39:16.987Z,45.55
2024-01-11T12:43:20.243Z,52.13
2024-01-11T12:47:23.679Z,47.97
2024-01-11T12:51:28.559Z,62.42
2024-01-11T12:55:34.003Z,46.90
2024-01-11T12:59:40.729Z,59.78
2024-01-11T13:03:48.393Z,59.05
2024-01-11T13:07:53.172Z,52.42
2024-01-11T13:11:56.936Z,59.90
2024-01-11T13:20:12.184Z,63.78
2024-01-11T13:24:17.455Z,64.25
2024-01-11T13:28:21.419Z,59.55
2024-01-11T13:32:25.143Z,58.78
2024-01-11T13:40:46.833Z,65.22
2024-01-11T13:44:50.232Z,61.50
2024-01-11T13:48:56.257Z,59.67
2024-01-11T13:52:59.619Z,67.43
2024-01-11T13:57:04.694Z,65.20
2024-01-11T14:01:09.057Z,58.40
2024-01-11T14:05:15.142Z,62.63
2024-01-11T14:09:19.009Z,66.78
2024-01-11T14:13:23.684Z,68.25
2024-01-11T14:17:27.657Z,64.10
2024-01-11T14:21:31.064Z,64.35
2024-01-11T14:25:34.170Z,51.80
2024-01-11T14:29:38.876Z,70.20
2024-01-11T14:33:45.215Z,70.78
2024-01-11T14:37:49.384Z,57.30
2024-01-11T14:41:53.202Z,61.72
2024-01-11T14:50:15.597Z,64.93
2024-01-11T14:54:21.016Z,63.83
2024-01-11T15:24:09.035Z,72.80
2024-01-11T15:58:06.430Z,68.03
2024-01-11T16:02:10.395Z,82.03
2024-01-11T16:06:14.152Z,77.22
2024-01-11T16:10:17.403Z,67.97
2024-01-11T16:14:31.547Z,66.63
2024-01-11T16:18:37.153Z,78.95
2024-01-11T16:22:40.556Z,67.82
2024-01-11T16:26:43.956Z,75.55
2024-01-11T16:30:48.560Z,75.57
2024-01-11T16:34:52.986Z,80.18
2024-01-11T16:38:56.808Z,66.97
2024-01-11T16:43:00.242Z,76.90
2024-01-11T16:47:05.468Z,75.32
2024-01-11T16:51:08.964Z,78.55
2024-01-11T16:55:12.472Z,80.18
2024-01-11T16:59:16.638Z,81.25
2024-01-11T17:03:21.573Z,55.55
2024-01-11T17:07:25.094Z,72.22
2024-01-11T17:11:29.008Z,77.32
2024-01-11T17:15:32.230Z,67.20
2024-01-11T17:19:37.109Z,71.18
2024-01-11T17:23:41.555Z,77.90
2024-01-11T17:27:47.865Z,75.88
2024-01-11T17:31:54.945Z,79.40
2024-01-11T17:35:59.809Z,87.82
2024-01-11T17:40:03.674Z,73.28
2024-01-11T17:44:06.951Z,78.07
2024-01-11T17:48:10.419Z,79.53
2024-01-11T17:52:15.150Z,81.97
2024-01-11T17:56:19.054Z,69.15
2024-01-11T18:00:22.829Z,70.82
2024-01-11T18:04:26.376Z,68.10
2024-01-11T18:08:34.215Z,71.35
2024-01-11T18:12:37.550Z,75.57
2024-01-11T18:16:40.719Z,67.57
2024-01-11T18:20:43.998Z,60.72
2024-01-11T18:24:48.949Z,80.60
2024-01-11T18:28:52.114Z,78.68
2024-01-11T18:32:55.965Z,70.63
2024-01-11T18:36:59.514Z,73.85
2024-01-11T18:41:04.194Z,65.47
2024-01-11T18:45:10.696Z,77.75
2024-01-11T18:49:14.208Z,74.82
2024-01-11T18:53:18.625Z,84.75
2024-01-11T18:57:23.478Z,70.25
2024-01-11T19:01:28.971Z,78.93
2024-01-11T19:05:32.508Z,69.68
2024-01-11T19:09:35.846Z,73.00
2024-01-11T19:13:40.909Z,88.07
2024-01-11T19:17:44.003Z,82.72
2024-01-11T19:21:47.140Z,69.95
2024-01-11T19:25:50.545Z,64.80
2024-01-11T19:29:55.108Z,55.72
2024-01-11T19:33:59.202Z,76.45
2024-01-11T19:38:02.493Z,63.28
2024-01-11T19:42:08.355Z,65.47
2024-01-11T19:46:21.314Z,66.97
2024-01-11T19:50:27.540Z,63.08
2024-01-11T19:54:30.882Z,64.05
2024-01-11T19:58:34.155Z,61.00
2024-01-11T20:02:39.774Z,63.72
2024-01-11T20:06:44.720Z,62.85
2024-01-11T20:10:47.809Z,63.55
2024-01-11T20:14:51.065Z,56.60
2024-01-11T20:18:55.930Z,52.38
2024-01-11T20:23:00.048Z,65.30
2024-01-11T20:27:05.102Z,71.90
2024-01-11T20:31:10.658Z,70.43
2024-01-11T20:35:15.825Z,69.45
2024-01-11T20:39:21.796Z,69.90
2024-01-11T20:43:25.061Z,64.15
2024-01-11T20:47:28.457Z,70.22
2024-01-11T20:51:33.473Z,61.33
2024-01-11T20:55:36.573Z,70.45
2024-01-11T20:59:41.231Z,64.63
2024-01-11T21:03:44.577Z,75.60
2024-01-11T21:07:49.071Z,67.25
2024-01-11T21:11:52.407Z,60.70
2024-01-11T21:15:55.657Z,63.42
2024-01-11T21:19:59.142Z,54.15
2024-01-11T21:24:05.790Z,59.72
2024-01-11T21:28:09.423Z,65.15
2024-01-11T21:32:15.314Z,49.65
2024-01-11T21:36:24.105Z,56.92
2024-01-11T21:40:28.730Z,56.85
2024-01-11T21:44:32.924Z,69.97
2024-01-11T21:48:36.217Z,60.35
2024-01-11T21:52:39.632Z,61.30
2024-01-11T21:56:44.503Z,63.50
2024-01-11T22:00:47.813Z,54.63
2024-01-11T22:04:51.306Z,49.28
2024-01-11T22:08:59.561Z,59.72
2024-01-11T22:13:04.927Z,49.47
2024-01-11T22:17:09.460Z,51.47
2024-01-11T22:21:14.700Z,50.15
2024-01-11T22:25:18.713Z,58.10
2024-01-11T22:29:23.192Z,61.10
2024-01-11T22:33:26.517Z,55.97
2024-01-11T22:37:29.583Z,50.70
2024-01-11T22:41:40.474Z,55.28
2024-01-11T22:45:45.006Z,49.90
2024-01-11T22:49:48.277Z,65.90
2024-01-11T22:53:52.409Z,60.25
2024-01-11T22:57:55.693Z,60.05
2024-01-11T23:02:00.204Z,54.42
2024-01-11T23:06:03.819Z,57.10
2024-01-11T23:10:07.902Z,59.30
2024-01-11T23:14:14.077Z,63.28
2024-01-11T23:31:11.116Z,67.35
2024-01-11T23:35:14.706Z,58.85
